sensor_id;sensor_type;location;lat;lon;timestamp;P1;durP1;ratioP1;P2;durP2;ratioP2
75548;SDS011;64133;56.002;37.208;2023-04-06T00:02:59;10.25;;;5.85;;
75548;SDS011;64133;56.002;37.208;2023-04-06T00:08:04;10.38;;;5.70;;
75548;SDS011;64133;56.002;37.208;2023-04-06T00:13:08;7.65;;;4.80;;
75548;SDS011;64133;56.002;37.208;2023-04-06T00:18:13;9.80;;;6.62;;
75548;SDS011;64133;56.002;37.208;2023-04-06T00:23:18;9.25;;;5.40;;
75548;SDS011;64133;56.002;37.208;2023-04-06T00:28:23;9.93;;;5.90;;
75548;SDS011;64133;56.002;37.208;2023-04-06T00:33:28;10.90;;;5.37;;
75548;SDS011;64133;56.002;37.208;2023-04-06T00:38:32;13.58;;;6.90;;
75548;SDS011;64133;56.002;37.208;2023-04-06T00:43:37;8.35;;;4.78;;
75548;SDS011;64133;56.002;37.208;2023-04-06T00:48:42;7.83;;;5.00;;
75548;SDS011;64133;56.002;37.208;2023-04-06T00:53:47;10.88;;;6.10;;
75548;SDS011;64133;56.002;37.208;2023-04-06T00:58:51;7.85;;;5.72;;
75548;SDS011;64133;56.002;37.208;2023-04-06T01:03:56;7.62;;;5.17;;
75548;SDS011;64133;56.002;37.208;2023-04-06T01:09:01;11.00;;;6.55;;
75548;SDS011;64133;56.002;37.208;2023-04-06T01:14:06;9.58;;;5.40;;
75548;SDS011;64133;56.002;37.208;2023-04-06T01:19:11;9.70;;;5.28;;
75548;SDS011;64133;56.002;37.208;2023-04-06T01:24:15;8.33;;;5.08;;
75548;SDS011;64133;56.002;37.208;2023-04-06T01:29:20;11.08;;;5.62;;
75548;SDS011;64133;56.002;37.208;2023-04-06T01:34:25;9.13;;;5.22;;
75548;SDS011;64133;56.002;37.208;2023-04-06T01:39:30;11.33;;;5.67;;
75548;SDS011;64133;56.002;37.208;2023-04-06T01:44:34;10.80;;;5.75;;
75548;SDS011;64133;56.002;37.208;2023-04-06T01:49:39;10.88;;;5.70;;
75548;SDS011;64133;56.002;37.208;2023-04-06T01:54:44;8.45;;;5.78;;
75548;SDS011;64133;56.002;37.208;2023-04-06T01:59:48;6.50;;;3.12;;
75548;SDS011;64133;56.002;37.208;2023-04-06T02:04:53;8.08;;;5.20;;
75548;SDS011;64133;56.002;37.208;2023-04-06T02:09:58;10.10;;;5.80;;
75548;SDS011;64133;56.002;37.208;2023-04-06T02:15:03;8.88;;;5.20;;
75548;SDS011;64133;56.002;37.208;2023-04-06T02:20:09;9.48;;;5.55;;
75548;SDS011;64133;56.002;37.208;2023-04-06T02:25:14;8.20;;;4.90;;
75548;SDS011;64133;56.002;37.208;2023-04-06T02:30:19;5.40;;;3.22;;
75548;SDS011;64133;56.002;37.208;2023-04-06T02:35:24;9.70;;;4.80;;
75548;SDS011;64133;56.002;37.208;2023-04-06T02:40:29;7.62;;;4.53;;
75548;SDS011;64133;56.002;37.208;2023-04-06T02:45:33;9.88;;;4.55;;
75548;SDS011;64133;56.002;37.208;2023-04-06T02:50:38;6.35;;;3.77;;
75548;SDS011;64133;56.002;37.208;2023-04-06T02:55:43;9.65;;;5.00;;
75548;SDS011;64133;56.002;37.208;2023-04-06T03:00:47;8.43;;;4.75;;
75548;SDS011;64133;56.002;37.208;2023-04-06T03:05:52;8.08;;;4.72;;
75548;SDS011;64133;56.002;37.208;2023-04-06T03:10:57;11.48;;;5.70;;
75548;SDS011;64133;56.002;37.208;2023-04-06T03:16:03;8.13;;;5.40;;
75548;SDS011;64133;56.002;37.208;2023-04-06T03:21:09;9.25;;;4.87;;
75548;SDS011;64133;56.002;37.208;2023-04-06T03:26:14;8.00;;;4.62;;
75548;SDS011;64133;56.002;37.208;2023-04-06T03:31:19;9.80;;;5.70;;
75548;SDS011;64133;56.002;37.208;2023-04-06T03:36:24;7.70;;;4.92;;
75548;SDS011;64133;56.002;37.208;2023-04-06T03:41:29;8.48;;;4.70;;
75548;SDS011;64133;56.002;37.208;2023-04-06T03:46:34;8.50;;;4.50;;
75548;SDS011;64133;56.002;37.208;2023-04-06T03:51:38;8.83;;;4.20;;
75548;SDS011;64133;56.002;37.208;2023-04-06T03:56:43;6.53;;;4.62;;
75548;SDS011;64133;56.002;37.208;2023-04-06T04:01:48;6.47;;;4.30;;
75548;SDS011;64133;56.002;37.208;2023-04-06T04:06:52;5.28;;;3.90;;
75548;SDS011;64133;56.002;37.208;2023-04-06T04:11:57;6.03;;;3.90;;
75548;SDS011;64133;56.002;37.208;2023-04-06T04:17:02;6.58;;;3.95;;
75548;SDS011;64133;56.002;37.208;2023-04-06T04:22:07;5.25;;;3.30;;
75548;SDS011;64133;56.002;37.208;2023-04-06T04:27:12;5.33;;;3.45;;
75548;SDS011;64133;56.002;37.208;2023-04-06T04:32:17;4.90;;;3.15;;
75548;SDS011;64133;56.002;37.208;2023-04-06T04:37:21;6.15;;;3.45;;
75548;SDS011;64133;56.002;37.208;2023-04-06T04:42:26;5.10;;;3.62;;
75548;SDS011;64133;56.002;37.208;2023-04-06T04:47:31;5.50;;;3.12;;
75548;SDS011;64133;56.002;37.208;2023-04-06T04:52:37;4.47;;;2.95;;
75548;SDS011;64133;56.002;37.208;2023-04-06T04:57:41;6.40;;;3.95;;
75548;SDS011;64133;56.002;37.208;2023-04-06T05:02:46;7.28;;;3.50;;
75548;SDS011;64133;56.002;37.208;2023-04-06T05:07:50;8.20;;;3.70;;
75548;SDS011;64133;56.002;37.208;2023-04-06T05:12:55;8.38;;;3.40;;
75548;SDS011;64133;56.002;37.208;2023-04-06T05:18:00;11.20;;;3.77;;
75548;SDS011;64133;56.002;37.208;2023-04-06T05:23:05;6.05;;;2.70;;
75548;SDS011;64133;56.002;37.208;2023-04-06T05:28:10;12.53;;;3.42;;
75548;SDS011;64133;56.002;37.208;2023-04-06T05:33:15;8.78;;;3.00;;
75548;SDS011;64133;56.002;37.208;2023-04-06T05:38:20;5.47;;;3.80;;
75548;SDS011;64133;56.002;37.208;2023-04-06T05:43:25;8.80;;;3.37;;
75548;SDS011;64133;56.002;37.208;2023-04-06T05:48:30;11.68;;;3.98;;
75548;SDS011;64133;56.002;37.208;2023-04-06T05:53:35;7.55;;;3.50;;
75548;SDS011;64133;56.002;37.208;2023-04-06T05:58:40;9.08;;;3.55;;
75548;SDS011;64133;56.002;37.208;2023-04-06T06:03:45;12.75;;;4.78;;
75548;SDS011;64133;56.002;37.208;2023-04-06T06:08:50;4.90;;;3.12;;
75548;SDS011;64133;56.002;37.208;2023-04-06T06:13:54;7.03;;;3.30;;
75548;SDS011;64133;56.002;37.208;2023-04-06T06:18:59;45.05;;;5.75;;
75548;SDS011;64133;56.002;37.208;2023-04-06T06:24:04;10.63;;;3.42;;
75548;SDS011;64133;56.002;37.208;2023-04-06T06:29:09;7.40;;;3.35;;
75548;SDS011;64133;56.002;37.208;2023-04-06T06:34:14;9.60;;;3.30;;
75548;SDS011;64133;56.002;37.208;2023-04-06T06:39:19;8.00;;;3.42;;
75548;SDS011;64133;56.002;37.208;2023-04-06T06:44:24;15.15;;;4.10;;
75548;SDS011;64133;56.002;37.208;2023-04-06T06:49:29;8.23;;;3.87;;
75548;SDS011;64133;56.002;37.208;2023-04-06T06:54:33;8.20;;;3.02;;
75548;SDS011;64133;56.002;37.208;2023-04-06T06:59:38;15.55;;;5.20;;
75548;SDS011;64133;56.002;37.208;2023-04-06T07:04:43;9.60;;;3.92;;
75548;SDS011;64133;56.002;37.208;2023-04-06T07:09:48;8.83;;;3.50;;
75548;SDS011;64133;56.002;37.208;2023-04-06T07:14:53;10.63;;;3.00;;
75548;SDS011;64133;56.002;37.208;2023-04-06T07:20:00;5.37;;;3.10;;
75548;SDS011;64133;56.002;37.208;2023-04-06T07:25:06;9.65;;;3.27;;
75548;SDS011;64133;56.002;37.208;2023-04-06T07:30:12;10.10;;;3.55;;
75548;SDS011;64133;56.002;37.208;2023-04-06T07:35:17;8.00;;;3.35;;
75548;SDS011;64133;56.002;37.208;2023-04-06T07:40:22;4.75;;;2.45;;
75548;SDS011;64133;56.002;37.208;2023-04-06T07:45:27;10.25;;;2.90;;
75548;SDS011;64133;56.002;37.208;2023-04-06T07:50:32;11.30;;;3.30;;
75548;SDS011;64133;56.002;37.208;2023-04-06T07:55:37;16.75;;;3.75;;
75548;SDS011;64133;56.002;37.208;2023-04-06T08:00:42;11.22;;;2.50;;
75548;SDS011;64133;56.002;37.208;2023-04-06T08:05:47;3.30;;;2.33;;
75548;SDS011;64133;56.002;37.208;2023-04-06T08:10:51;4.60;;;2.37;;
75548;SDS011;64133;56.002;37.208;2023-04-06T08:15:56;7.20;;;2.50;;
75548;SDS011;64133;56.002;37.208;2023-04-06T08:21:01;8.48;;;2.75;;
75548;SDS011;64133;56.002;37.208;2023-04-06T08:26:05;6.95;;;2.40;;
75548;SDS011;64133;56.002;37.208;2023-04-06T08:31:10;5.10;;;2.45;;
75548;SDS011;64133;56.002;37.208;2023-04-06T08:36:15;6.83;;;2.90;;
75548;SDS011;64133;56.002;37.208;2023-04-06T08:41:19;9.48;;;2.87;;
75548;SDS011;64133;56.002;37.208;2023-04-06T08:46:25;9.05;;;2.72;;
75548;SDS011;64133;56.002;37.208;2023-04-06T08:51:30;7.40;;;2.85;;
75548;SDS011;64133;56.002;37.208;2023-04-06T08:56:37;6.15;;;2.30;;
75548;SDS011;64133;56.002;37.208;2023-04-06T09:01:40;4.10;;;2.33;;
75548;SDS011;64133;56.002;37.208;2023-04-06T09:06:45;5.33;;;2.37;;
75548;SDS011;64133;56.002;37.208;2023-04-06T09:11:50;14.00;;;5.85;;
75548;SDS011;64133;56.002;37.208;2023-04-06T09:16:54;5.30;;;2.25;;
75548;SDS011;64133;56.002;37.208;2023-04-06T09:22:03;3.70;;;1.67;;
75548;SDS011;64133;56.002;37.208;2023-04-06T09:27:08;7.87;;;2.08;;
75548;SDS011;64133;56.002;37.208;2023-04-06T09:32:12;5.05;;;1.45;;
75548;SDS011;64133;56.002;37.208;2023-04-06T09:37:18;7.67;;;1.77;;
75548;SDS011;64133;56.002;37.208;2023-04-06T09:42:26;3.90;;;1.72;;
75548;SDS011;64133;56.002;37.208;2023-04-06T09:47:31;11.10;;;2.72;;
75548;SDS011;64133;56.002;37.208;2023-04-06T09:52:37;4.50;;;1.57;;
75548;SDS011;64133;56.002;37.208;2023-04-06T09:57:43;3.85;;;1.52;;
75548;SDS011;64133;56.002;37.208;2023-04-06T10:02:50;11.60;;;2.05;;
75548;SDS011;64133;56.002;37.208;2023-04-06T10:07:56;5.53;;;2.30;;
75548;SDS011;64133;56.002;37.208;2023-04-06T10:12:59;8.15;;;3.12;;
75548;SDS011;64133;56.002;37.208;2023-04-06T10:18:04;7.72;;;2.50;;
75548;SDS011;64133;56.002;37.208;2023-04-06T10:23:11;5.37;;;2.27;;
75548;SDS011;64133;56.002;37.208;2023-04-06T10:28:16;6.10;;;2.98;;
75548;SDS011;64133;56.002;37.208;2023-04-06T10:33:21;8.95;;;3.33;;
75548;SDS011;64133;56.002;37.208;2023-04-06T10:38:34;3.98;;;2.60;;
75548;SDS011;64133;56.002;37.208;2023-04-06T10:43:39;5.95;;;2.20;;
75548;SDS011;64133;56.002;37.208;2023-04-06T10:48:44;7.10;;;2.47;;
75548;SDS011;64133;56.002;37.208;2023-04-06T10:53:48;4.72;;;2.05;;
75548;SDS011;64133;56.002;37.208;2023-04-06T10:58:53;7.42;;;2.17;;
75548;SDS011;64133;56.002;37.208;2023-04-06T11:03:58;6.20;;;2.62;;
75548;SDS011;64133;56.002;37.208;2023-04-06T11:09:04;6.33;;;2.25;;
75548;SDS011;64133;56.002;37.208;2023-04-06T11:14:09;6.85;;;2.15;;
75548;SDS011;64133;56.002;37.208;2023-04-06T11:19:14;3.05;;;1.02;;
75548;SDS011;64133;56.002;37.208;2023-04-06T11:24:19;9.13;;;1.90;;
75548;SDS011;64133;56.002;37.208;2023-04-06T11:29:24;7.60;;;1.85;;
75548;SDS011;64133;56.002;37.208;2023-04-06T11:34:29;8.03;;;2.17;;
75548;SDS011;64133;56.002;37.208;2023-04-06T11:39:40;5.12;;;1.82;;
75548;SDS011;64133;56.002;37.208;2023-04-06T11:44:42;4.15;;;1.10;;
75548;SDS011;64133;56.002;37.208;2023-04-06T11:49:47;9.95;;;2.30;;
75548;SDS011;64133;56.002;37.208;2023-04-06T11:54:52;6.22;;;2.25;;
75548;SDS011;64133;56.002;37.208;2023-04-06T11:59:56;9.08;;;3.80;;
75548;SDS011;64133;56.002;37.208;2023-04-06T12:05:01;4.37;;;1.60;;
75548;SDS011;64133;56.002;37.208;2023-04-06T12:10:06;4.75;;;1.40;;
75548;SDS011;64133;56.002;37.208;2023-04-06T12:15:12;5.28;;;1.57;;
75548;SDS011;64133;56.002;37.208;2023-04-06T12:20:17;4.97;;;2.17;;
75548;SDS011;64133;56.002;37.208;2023-04-06T12:25:21;4.12;;;1.62;;
75548;SDS011;64133;56.002;37.208;2023-04-06T12:30:26;4.53;;;1.65;;
75548;SDS011;64133;56.002;37.208;2023-04-06T12:35:34;3.30;;;1.32;;
75548;SDS011;64133;56.002;37.208;2023-04-06T12:40:38;3.37;;;1.55;;
75548;SDS011;64133;56.002;37.208;2023-04-06T12:45:43;3.20;;;0.98;;
75548;SDS011;64133;56.002;37.208;2023-04-06T12:50:54;4.85;;;1.10;;
75548;SDS011;64133;56.002;37.208;2023-04-06T12:55:59;5.30;;;1.55;;
75548;SDS011;64133;56.002;37.208;2023-04-06T13:01:05;4.58;;;1.75;;
75548;SDS011;64133;56.002;37.208;2023-04-06T13:06:10;5.62;;;1.27;;
75548;SDS011;64133;56.002;37.208;2023-04-06T13:11:14;4.22;;;1.62;;
75548;SDS011;64133;56.002;37.208;2023-04-06T13:16:19;9.18;;;1.05;;
75548;SDS011;64133;56.002;37.208;2023-04-06T13:21:24;6.42;;;1.10;;
75548;SDS011;64133;56.002;37.208;2023-04-06T13:26:29;7.72;;;1.20;;
75548;SDS011;64133;56.002;37.208;2023-04-06T13:31:33;2.58;;;1.05;;
75548;SDS011;64133;56.002;37.208;2023-04-06T13:36:38;1.85;;;0.68;;
75548;SDS011;64133;56.002;37.208;2023-04-06T13:41:45;6.17;;;1.55;;
75548;SDS011;64133;56.002;37.208;2023-04-06T13:46:49;3.83;;;0.70;;
75548;SDS011;64133;56.002;37.208;2023-04-06T13:51:54;2.98;;;1.17;;
75548;SDS011;64133;56.002;37.208;2023-04-06T13:56:59;3.92;;;2.65;;
75548;SDS011;64133;56.002;37.208;2023-04-06T14:02:04;4.60;;;0.68;;
75548;SDS011;64133;56.002;37.208;2023-04-06T14:07:08;1.45;;;0.62;;
75548;SDS011;64133;56.002;37.208;2023-04-06T14:12:13;2.08;;;1.12;;
75548;SDS011;64133;56.002;37.208;2023-04-06T14:17:18;3.45;;;1.12;;
75548;SDS011;64133;56.002;37.208;2023-04-06T14:22:22;4.80;;;0.82;;
75548;SDS011;64133;56.002;37.208;2023-04-06T14:27:27;3.72;;;1.10;;
75548;SDS011;64133;56.002;37.208;2023-04-06T14:32:32;3.05;;;0.60;;
75548;SDS011;64133;56.002;37.208;2023-04-06T14:37:36;2.20;;;0.78;;
75548;SDS011;64133;56.002;37.208;2023-04-06T14:42:41;11.57;;;2.02;;
75548;SDS011;64133;56.002;37.208;2023-04-06T14:47:45;3.65;;;0.82;;
75548;SDS011;64133;56.002;37.208;2023-04-06T14:52:50;4.12;;;0.98;;
75548;SDS011;64133;56.002;37.208;2023-04-06T14:57:55;6.28;;;2.08;;
75548;SDS011;64133;56.002;37.208;2023-04-06T15:02:59;2.40;;;0.82;;
75548;SDS011;64133;56.002;37.208;2023-04-06T15:08:04;4.30;;;0.57;;
75548;SDS011;64133;56.002;37.208;2023-04-06T15:13:09;5.15;;;0.62;;
75548;SDS011;64133;56.002;37.208;2023-04-06T15:18:13;0.98;;;0.30;;
75548;SDS011;64133;56.002;37.208;2023-04-06T15:23:18;3.70;;;0.57;;
75548;SDS011;64133;56.002;37.208;2023-04-06T15:28:23;2.10;;;0.98;;
75548;SDS011;64133;56.002;37.208;2023-04-06T15:33:28;1.60;;;0.60;;
75548;SDS011;64133;56.002;37.208;2023-04-06T15:38:32;4.20;;;1.00;;
75548;SDS011;64133;56.002;37.208;2023-04-06T15:43:37;3.45;;;0.90;;
75548;SDS011;64133;56.002;37.208;2023-04-06T15:48:42;3.15;;;0.75;;
75548;SDS011;64133;56.002;37.208;2023-04-06T15:59:01;2.90;;;0.93;;
75548;SDS011;64133;56.002;37.208;2023-04-06T16:04:07;3.98;;;1.35;;
75548;SDS011;64133;56.002;37.208;2023-04-06T16:09:11;3.98;;;0.80;;
75548;SDS011;64133;56.002;37.208;2023-04-06T16:14:16;2.75;;;0.80;;
75548;SDS011;64133;56.002;37.208;2023-04-06T16:19:21;3.70;;;1.20;;
75548;SDS011;64133;56.002;37.208;2023-04-06T16:24:26;3.27;;;0.70;;
75548;SDS011;64133;56.002;37.208;2023-04-06T16:29:33;3.22;;;0.98;;
75548;SDS011;64133;56.002;37.208;2023-04-06T16:34:35;2.87;;;0.80;;
75548;SDS011;64133;56.002;37.208;2023-04-06T16:39:40;3.80;;;0.82;;
75548;SDS011;64133;56.002;37.208;2023-04-06T16:44:44;4.70;;;1.10;;
75548;SDS011;64133;56.002;37.208;2023-04-06T16:49:50;3.00;;;0.80;;
75548;SDS011;64133;56.002;37.208;2023-04-06T16:54:55;4.15;;;1.20;;
75548;SDS011;64133;56.002;37.208;2023-04-06T16:59:59;1.37;;;0.55;;
75548;SDS011;64133;56.002;37.208;2023-04-06T17:05:05;4.22;;;1.27;;
75548;SDS011;64133;56.002;37.208;2023-04-06T17:10:10;4.55;;;1.40;;
75548;SDS011;64133;56.002;37.208;2023-04-06T17:15:15;3.37;;;1.45;;
75548;SDS011;64133;56.002;37.208;2023-04-06T17:20:20;4.50;;;1.22;;
75548;SDS011;64133;56.002;37.208;2023-04-06T17:25:25;3.90;;;1.25;;
75548;SDS011;64133;56.002;37.208;2023-04-06T17:30:30;2.75;;;1.30;;
75548;SDS011;64133;56.002;37.208;2023-04-06T17:35:34;3.58;;;1.40;;
75548;SDS011;64133;56.002;37.208;2023-04-06T17:40:40;3.33;;;0.70;;
75548;SDS011;64133;56.002;37.208;2023-04-06T17:45:48;7.67;;;1.85;;
75548;SDS011;64133;56.002;37.208;2023-04-06T17:50:52;5.42;;;1.20;;
75548;SDS011;64133;56.002;37.208;2023-04-06T17:55:58;6.03;;;1.60;;
75548;SDS011;64133;56.002;37.208;2023-04-06T18:01:05;4.78;;;1.00;;
75548;SDS011;64133;56.002;37.208;2023-04-06T18:06:11;5.35;;;1.20;;
75548;SDS011;64133;56.002;37.208;2023-04-06T18:11:16;6.28;;;1.12;;
75548;SDS011;64133;56.002;37.208;2023-04-06T18:16:20;4.33;;;1.52;;
75548;SDS011;64133;56.002;37.208;2023-04-06T18:21:25;2.33;;;1.00;;
75548;SDS011;64133;56.002;37.208;2023-04-06T18:26:29;3.95;;;1.45;;
75548;SDS011;64133;56.002;37.208;2023-04-06T18:31:34;4.10;;;1.00;;
75548;SDS011;64133;56.002;37.208;2023-04-06T18:36:39;2.67;;;0.90;;
75548;SDS011;64133;56.002;37.208;2023-04-06T18:41:43;2.83;;;0.93;;
75548;SDS011;64133;56.002;37.208;2023-04-06T18:46:48;4.08;;;1.52;;
75548;SDS011;64133;56.002;37.208;2023-04-06T18:51:54;5.05;;;1.22;;
75548;SDS011;64133;56.002;37.208;2023-04-06T18:56:58;2.67;;;0.80;;
75548;SDS011;64133;56.002;37.208;2023-04-06T19:02:03;4.50;;;1.85;;
75548;SDS011;64133;56.002;37.208;2023-04-06T19:07:08;5.28;;;1.25;;
75548;SDS011;64133;56.002;37.208;2023-04-06T19:12:12;1.92;;;1.20;;
75548;SDS011;64133;56.002;37.208;2023-04-06T19:17:17;2.95;;;0.90;;
75548;SDS011;64133;56.002;37.208;2023-04-06T19:22:22;5.37;;;1.27;;
75548;SDS011;64133;56.002;37.208;2023-04-06T19:27:26;2.85;;;1.20;;
75548;SDS011;64133;56.002;37.208;2023-04-06T19:32:31;3.70;;;1.15;;
75548;SDS011;64133;56.002;37.208;2023-04-06T19:37:36;5.33;;;1.20;;
75548;SDS011;64133;56.002;37.208;2023-04-06T19:42:40;5.40;;;1.15;;
75548;SDS011;64133;56.002;37.208;2023-04-06T19:47:45;4.53;;;1.47;;
75548;SDS011;64133;56.002;37.208;2023-04-06T19:52:49;3.33;;;1.20;;
75548;SDS011;64133;56.002;37.208;2023-04-06T19:57:55;3.22;;;1.10;;
75548;SDS011;64133;56.002;37.208;2023-04-06T20:02:59;2.22;;;0.88;;
75548;SDS011;64133;56.002;37.208;2023-04-06T20:08:04;2.72;;;1.17;;
75548;SDS011;64133;56.002;37.208;2023-04-06T20:13:09;3.83;;;0.80;;
75548;SDS011;64133;56.002;37.208;2023-04-06T20:18:14;3.27;;;0.93;;
75548;SDS011;64133;56.002;37.208;2023-04-06T20:23:18;4.78;;;1.65;;
75548;SDS011;64133;56.002;37.208;2023-04-06T20:28:23;3.62;;;1.30;;
75548;SDS011;64133;56.002;37.208;2023-04-06T20:33:27;6.42;;;1.60;;
75548;SDS011;64133;56.002;37.208;2023-04-06T20:38:32;3.90;;;1.40;;
75548;SDS011;64133;56.002;37.208;2023-04-06T20:43:39;5.62;;;1.70;;
75548;SDS011;64133;56.002;37.208;2023-04-06T20:48:44;2.80;;;1.10;;
75548;SDS011;64133;56.002;37.208;2023-04-06T20:53:49;2.22;;;0.90;;
75548;SDS011;64133;56.002;37.208;2023-04-06T20:58:54;5.17;;;1.05;;
75548;SDS011;64133;56.002;37.208;2023-04-06T21:03:59;4.33;;;1.52;;
75548;SDS011;64133;56.002;37.208;2023-04-06T21:09:04;9.38;;;1.50;;
75548;SDS011;64133;56.002;37.208;2023-04-06T21:14:09;3.75;;;1.25;;
75548;SDS011;64133;56.002;37.208;2023-04-06T21:19:13;3.33;;;1.20;;
75548;SDS011;64133;56.002;37.208;2023-04-06T21:24:18;3.52;;;1.32;;
75548;SDS011;64133;56.002;37.208;2023-04-06T21:29:23;4.10;;;1.50;;
75548;SDS011;64133;56.002;37.208;2023-04-06T21:34:27;3.83;;;1.22;;
75548;SDS011;64133;56.002;37.208;2023-04-06T21:39:33;2.45;;;0.78;;
75548;SDS011;64133;56.002;37.208;2023-04-06T21:44:39;2.45;;;0.90;;
75548;SDS011;64133;56.002;37.208;2023-04-06T21:49:44;2.85;;;1.37;;
75548;SDS011;64133;56.002;37.208;2023-04-06T21:54:48;3.35;;;1.20;;
75548;SDS011;64133;56.002;37.208;2023-04-06T21:59:53;4.12;;;1.70;;
75548;SDS011;64133;56.002;37.208;2023-04-06T22:04:58;2.98;;;1.37;;
75548;SDS011;64133;56.002;37.208;2023-04-06T22:10:03;5.17;;;1.10;;
75548;SDS011;64133;56.002;37.208;2023-04-06T22:15:09;3.77;;;0.95;;
75548;SDS011;64133;56.002;37.208;2023-04-06T22:20:14;2.37;;;0.72;;
75548;SDS011;64133;56.002;37.208;2023-04-06T22:25:19;2.27;;;0.82;;
75548;SDS011;64133;56.002;37.208;2023-04-06T22:30:24;12.20;;;1.57;;
75548;SDS011;64133;56.002;37.208;2023-04-06T22:35:28;2.67;;;0.88;;
75548;SDS011;64133;56.002;37.208;2023-04-06T22:40:33;1.85;;;0.70;;
75548;SDS011;64133;56.002;37.208;2023-04-06T22:45:38;3.30;;;1.10;;
75548;SDS011;64133;56.002;37.208;2023-04-06T22:50:42;3.27;;;1.40;;
75548;SDS011;64133;56.002;37.208;2023-04-06T22:55:47;2.35;;;1.17;;
75548;SDS011;64133;56.002;37.208;2023-04-06T23:00:51;2.00;;;0.80;;
75548;SDS011;64133;56.002;37.208;2023-04-06T23:05:56;3.17;;;1.00;;
75548;SDS011;64133;56.002;37.208;2023-04-06T23:11:01;3.92;;;1.02;;
75548;SDS011;64133;56.002;37.208;2023-04-06T23:16:07;2.12;;;0.80;;
75548;SDS011;64133;56.002;37.208;2023-04-06T23:21:11;2.02;;;0.82;;
75548;SDS011;64133;56.002;37.208;2023-04-06T23:26:16;2.33;;;0.90;;
75548;SDS011;64133;56.002;37.208;2023-04-06T23:31:20;5.35;;;1.10;;
75548;SDS011;64133;56.002;37.208;2023-04-06T23:36:25;3.60;;;1.52;;
75548;SDS011;64133;56.002;37.208;2023-04-06T23:41:30;2.40;;;1.05;;
75548;SDS011;64133;56.002;37.208;2023-04-06T23:46:34;2.72;;;1.07;;
75548;SDS011;64133;56.002;37.208;2023-04-06T23:51:39;2.55;;;1.15;;
75548;SDS011;64133;56.002;37.208;2023-04-06T23:56:43;1.80;;;0.70;;
